createdAt,value
2024-02-24T00:01:45.701Z,98480.72
2024-02-24T00:04:12.863Z,98485.50
2024-02-24T00:06:40.039Z,98483.19
2024-02-24T00:09:07.524Z,98479.91
2024-02-24T00:11:34.911Z,98480.41
2024-02-24T00:14:02.463Z,98469.38
2024-02-24T00:16:29.687Z,98460.50
2024-02-24T00:18:58.156Z,98462.09
2024-02-24T00:21:25.405Z,98464.88
2024-02-24T00:23:52.519Z,98462.03
2024-02-24T00:26:19.944Z,98473.91
2024-02-24T00:28:46.978Z,98470.88
2024-02-24T00:31:14.396Z,98451.16
2024-02-24T00:33:42.416Z,98472.19
2024-02-24T00:36:10.002Z,98479.44
2024-02-24T00:38:37.118Z,98463.16
2024-02-24T00:41:04.474Z,98467.44
2024-02-24T00:43:31.498Z,98478.97
2024-02-24T00:45:58.641Z,98479.13
2024-02-24T00:48:25.918Z,98491.59
2024-02-24T00:50:53.640Z,98475.22
2024-02-24T00:53:20.833Z,98496.31
2024-02-24T00:55:48.163Z,98487.13
2024-02-24T00:58:15.320Z,98477.59
2024-02-24T01:00:42.525Z,98482.06
2024-02-24T01:03:09.718Z,98478.78
2024-02-24T01:05:37.020Z,98483.66
2024-02-24T01:08:04.619Z,98481.50
2024-02-24T01:10:31.778Z,98469.03
2024-02-24T01:12:58.824Z,98456.84
2024-02-24T01:15:25.960Z,98435.97
2024-02-24T01:17:57.508Z,98423.25
2024-02-24T01:20:26.744Z,98414.34
2024-02-24T01:22:55.491Z,98407.44
2024-02-24T01:25:22.733Z,98395.63
2024-02-24T01:27:51.171Z,98375.22
2024-02-24T01:30:18.656Z,98363.28
2024-02-24T01:32:46.012Z,98369.03
2024-02-24T01:35:13.943Z,98362.25
2024-02-24T01:37:41.173Z,98350.75
2024-02-24T01:40:08.895Z,98360.81
2024-02-24T01:42:36.095Z,98368.38
2024-02-24T01:45:03.557Z,98368.53
2024-02-24T01:47:30.950Z,98383.31
2024-02-24T01:49:59.386Z,98373.44
2024-02-24T01:52:27.698Z,98369.50
2024-02-24T01:54:57.513Z,98378.91
2024-02-24T01:57:29.888Z,98386.00
2024-02-24T01:59:57.858Z,98398.03
2024-02-24T02:02:25.364Z,98403.53
2024-02-24T02:04:52.527Z,98404.84
2024-02-24T02:07:19.773Z,98408.63
2024-02-24T02:10:00.891Z,98406.50
2024-02-24T02:12:29.453Z,98417.47
2024-02-24T02:14:56.847Z,98429.84
2024-02-24T02:17:24.039Z,98417.66
2024-02-24T02:19:51.252Z,98402.72
2024-02-24T02:22:19.366Z,98396.66
2024-02-24T02:24:47.175Z,98425.00
2024-02-24T02:27:14.344Z,98415.16
2024-02-24T02:29:41.682Z,98421.97
2024-02-24T02:32:11.988Z,98436.78
2024-02-24T02:34:39.124Z,98445.28
2024-02-24T02:37:09.482Z,98449.88
2024-02-24T02:39:36.532Z,98464.50
2024-02-24T02:42:03.579Z,98470.75
2024-02-24T02:44:30.953Z,98449.38
2024-02-24T02:46:57.985Z,98456.84
2024-02-24T02:49:25.043Z,98451.59
2024-02-24T02:51:52.238Z,98451.09
2024-02-24T02:54:19.443Z,98436.78
2024-02-24T02:56:46.623Z,98437.06
2024-02-24T02:59:13.846Z,98435.94
2024-02-24T03:01:40.985Z,98430.31
2024-02-24T03:04:08.074Z,98433.13
2024-02-24T03:06:35.353Z,98447.47
2024-02-24T03:09:02.542Z,98467.69
2024-02-24T03:11:32.156Z,98465.25
2024-02-24T03:13:59.392Z,98492.28
2024-02-24T03:16:26.640Z,98518.75
2024-02-24T03:18:53.879Z,98539.47
2024-02-24T03:21:27.148Z,98577.06
2024-02-24T03:23:54.490Z,98600.63
2024-02-24T03:26:21.545Z,98582.97
2024-02-24T03:28:48.654Z,98610.06
2024-02-24T03:31:15.837Z,98621.56
2024-02-24T03:33:43.256Z,98632.81
2024-02-24T03:36:14.887Z,98621.06
2024-02-24T03:38:43.104Z,98613.84
2024-02-24T03:41:10.822Z,98589.38
2024-02-24T03:43:38.930Z,98565.66
2024-02-24T03:46:07.543Z,98575.84
2024-02-24T03:48:35.295Z,98548.84
2024-02-24T03:51:02.824Z,98537.13
2024-02-24T03:53:30.142Z,98531.75
2024-02-24T03:55:57.423Z,98514.41
2024-02-24T03:58:24.762Z,98533.03
2024-02-24T04:00:54.462Z,98515.91
2024-02-24T04:03:21.605Z,98538.34
2024-02-24T04:05:49.026Z,98538.94
2024-02-24T04:08:16.776Z,98538.78
2024-02-24T04:10:46.806Z,98542.59
2024-02-24T04:13:14.122Z,98557.47
2024-02-24T04:15:49.791Z,98537.28
2024-02-24T04:18:17.234Z,98558.91
2024-02-24T04:20:48.694Z,98561.38
2024-02-24T04:23:15.955Z,98563.19
2024-02-24T04:25:43.132Z,98574.00
2024-02-24T04:28:11.199Z,98568.75
2024-02-24T04:30:39.214Z,98557.75
2024-02-24T04:33:07.290Z,98568.72
2024-02-24T04:35:34.922Z,98578.56
2024-02-24T04:38:07.876Z,98594.16
2024-02-24T04:40:36.928Z,98594.78
2024-02-24T04:43:04.339Z,98621.09
2024-02-24T04:45:31.458Z,98624.97
2024-02-24T04:47:59.107Z,98626.00
2024-02-24T04:50:26.438Z,98619.91
2024-02-24T04:52:53.780Z,98612.19
2024-02-24T04:55:21.215Z,98601.91
2024-02-24T04:57:48.304Z,98619.72
2024-02-24T05:00:15.614Z,98614.72
2024-02-24T05:02:42.928Z,98589.50
2024-02-24T05:05:11.375Z,98587.28
2024-02-24T05:07:38.476Z,98586.63
2024-02-24T05:10:05.899Z,98582.47
2024-02-24T05:12:33.109Z,98593.53
2024-02-24T05:15:00.156Z,98608.88
2024-02-24T05:17:27.253Z,98584.75
2024-02-24T05:19:54.389Z,98618.38
2024-02-24T05:22:21.533Z,98605.66
2024-02-24T05:24:48.635Z,98611.16
2024-02-24T05:27:15.797Z,98622.56
2024-02-24T05:29:47.784Z,98614.09
2024-02-24T05:32:18.584Z,98609.06
2024-02-24T05:34:45.958Z,98613.66
2024-02-24T05:37:13.151Z,98589.47
2024-02-24T05:39:40.288Z,98621.28
2024-02-24T05:42:07.869Z,98629.38
2024-02-24T05:44:35.386Z,98628.44
2024-02-24T05:47:02.531Z,98639.44
2024-02-24T05:49:29.798Z,98632.38
2024-02-24T05:51:57.086Z,98658.63
2024-02-24T05:54:24.634Z,98664.72
2024-02-24T05:56:52.164Z,98675.53
2024-02-24T05:59:20.130Z,98673.84
2024-02-24T06:01:47.717Z,98677.75
2024-02-24T06:04:17.172Z,98686.31
2024-02-24T06:06:44.618Z,98689.19
2024-02-24T06:09:11.845Z,98698.25
2024-02-24T06:11:39.051Z,98702.69
2024-02-24T06:14:06.228Z,98689.44
2024-02-24T06:16:33.201Z,98702.16
2024-02-24T06:19:00.737Z,98702.94
2024-02-24T06:21:29.815Z,98702.75
2024-02-24T06:23:56.935Z,98701.97
2024-02-24T06:26:24.604Z,98706.19
2024-02-24T06:28:51.897Z,98700.50
2024-02-24T06:31:19.549Z,98699.34
2024-02-24T06:33:46.726Z,98698.22
2024-02-24T06:36:14.000Z,98701.19
2024-02-24T06:38:41.175Z,98708.47
2024-02-24T06:41:08.397Z,98700.00
2024-02-24T06:43:35.548Z,98709.34
2024-02-24T06:46:02.857Z,98709.69
2024-02-24T06:48:30.238Z,98699.38
2024-02-24T06:50:57.520Z,98715.75
2024-02-24T06:53:24.675Z,98734.38
2024-02-24T06:55:51.814Z,98743.88
2024-02-24T06:58:18.816Z,98742.19
2024-02-24T07:00:45.906Z,98743.19
2024-02-24T07:03:13.311Z,98759.78
2024-02-24T07:05:40.775Z,98750.50
2024-02-24T07:08:07.970Z,98762.22
2024-02-24T07:10:35.172Z,98775.63
2024-02-24T07:13:02.312Z,98788.84
2024-02-24T07:15:29.634Z,98796.63
2024-02-24T07:17:56.905Z,98795.44
2024-02-24T07:20:24.544Z,98795.25
2024-02-24T07:22:51.560Z,98808.22
2024-02-24T07:25:18.664Z,98769.03
2024-02-24T07:27:45.780Z,98803.84
2024-02-24T07:30:13.635Z,98812.63
2024-02-24T07:32:42.811Z,98806.97
2024-02-24T07:35:11.068Z,98804.47
2024-02-24T07:37:38.135Z,98796.94
2024-02-24T07:40:05.937Z,98802.78
2024-02-24T07:42:33.039Z,98813.72
2024-02-24T07:45:00.224Z,98820.72
2024-02-24T07:47:27.348Z,98794.34
2024-02-24T07:49:54.568Z,98784.94
2024-02-24T07:52:21.837Z,98795.47
2024-02-24T07:54:48.875Z,98792.94
2024-02-24T07:57:15.929Z,98797.28
2024-02-24T07:59:43.027Z,98795.00
2024-02-24T08:02:10.205Z,98810.28
2024-02-24T08:04:37.485Z,98802.56
2024-02-24T08:07:04.979Z,98824.72
2024-02-24T08:09:32.150Z,98842.72
2024-02-24T08:12:01.205Z,98856.78
2024-02-24T08:14:28.426Z,98868.09
2024-02-24T08:16:55.432Z,98854.25
2024-02-24T08:19:22.533Z,98873.44
2024-02-24T08:21:50.624Z,98878.84
2024-02-24T08:24:17.864Z,98888.47
2024-02-24T08:26:46.809Z,98891.03
2024-02-24T08:29:14.039Z,98900.97
2024-02-24T08:31:41.449Z,98898.72
2024-02-24T08:34:08.914Z,98906.38
2024-02-24T08:36:37.040Z,98918.75
2024-02-24T08:39:04.627Z,98937.75
2024-02-24T08:41:38.359Z,98945.78
2024-02-24T08:44:06.138Z,98938.63
2024-02-24T08:46:33.518Z,98936.31
2024-02-24T08:49:01.075Z,98939.03
2024-02-24T08:51:28.984Z,98940.84
2024-02-24T08:53:56.646Z,98910.78
2024-02-24T08:56:24.829Z,98927.28
2024-02-24T08:58:52.451Z,98914.81
2024-02-24T09:01:22.530Z,98896.94
2024-02-24T09:03:49.605Z,98923.91
2024-02-24T09:06:17.331Z,98930.63
2024-02-24T09:08:44.663Z,98922.13
2024-02-24T09:11:12.318Z,98919.53
2024-02-24T09:13:39.603Z,98912.72
2024-02-24T09:16:06.952Z,98927.09
2024-02-24T09:18:37.272Z,98940.53
2024-02-24T09:21:04.577Z,98946.19
2024-02-24T09:23:31.701Z,98933.41
2024-02-24T09:25:58.779Z,98945.09
2024-02-24T09:28:25.767Z,98945.81
2024-02-24T09:30:53.050Z,98946.88
2024-02-24T09:33:20.643Z,98965.94
2024-02-24T09:35:48.066Z,98966.97
2024-02-24T09:38:23.915Z,98972.75
2024-02-24T09:40:51.125Z,98965.00
2024-02-24T09:43:19.258Z,98981.94
2024-02-24T09:45:50.097Z,98986.72
2024-02-24T09:48:17.632Z,98990.59
2024-02-24T09:50:45.250Z,98993.81
2024-02-24T09:53:12.712Z,98988.56
2024-02-24T09:55:39.957Z,99001.88
2024-02-24T09:58:12.658Z,99026.56
2024-02-24T10:00:39.909Z,99015.63
2024-02-24T10:03:07.620Z,99044.84
2024-02-24T10:05:37.977Z,99047.19
2024-02-24T10:08:05.660Z,99014.16
2024-02-24T10:10:33.084Z,99057.59
2024-02-24T10:13:00.863Z,99042.13
2024-02-24T10:15:27.962Z,99034.97
2024-02-24T10:17:56.585Z,99028.03
2024-02-24T10:20:23.806Z,99035.59
2024-02-24T10:22:51.293Z,99041.13
2024-02-24T10:25:18.388Z,99023.59
2024-02-24T10:27:46.373Z,99050.19
2024-02-24T10:30:14.092Z,99059.56
2024-02-24T10:32:43.676Z,99049.84
2024-02-24T10:35:12.255Z,99042.75
2024-02-24T10:37:56.879Z,99040.72
2024-02-24T10:40:26.658Z,99043.47
2024-02-24T10:42:55.129Z,99049.72
2024-02-24T10:45:23.126Z,99051.41
2024-02-24T10:47:52.689Z,99042.28
2024-02-24T10:50:20.892Z,99044.59
2024-02-24T10:52:50.673Z,99031.56
2024-02-24T10:55:24.383Z,99037.75
2024-02-24T10:57:56.304Z,99048.31
2024-02-24T11:00:27.239Z,99050.09
2024-02-24T11:02:54.490Z,99050.56
2024-02-24T11:05:21.884Z,99068.47
2024-02-24T11:07:49.156Z,99061.59
2024-02-24T11:10:23.369Z,99064.88
2024-02-24T11:12:53.191Z,99061.41
2024-02-24T11:15:26.661Z,99061.88
2024-02-24T11:17:57.805Z,99064.88
2024-02-24T11:20:40.847Z,99066.16
2024-02-24T11:23:34.509Z,99062.13
2024-02-24T11:26:10.942Z,99073.16
2024-02-24T11:28:39.458Z,99066.38
2024-02-24T11:31:07.590Z,99073.53
2024-02-24T11:33:40.455Z,99063.69
2024-02-24T11:36:08.967Z,99072.66
2024-02-24T11:38:36.232Z,99055.75
2024-02-24T11:41:07.452Z,99060.25
2024-02-24T11:43:34.897Z,99067.88
2024-02-24T11:46:05.435Z,99071.63
2024-02-24T11:48:32.719Z,99081.59
2024-02-24T11:51:00.869Z,99066.38
2024-02-24T11:53:29.209Z,99069.22
2024-02-24T11:55:56.630Z,99066.59
2024-02-24T11:58:23.970Z,99053.13
2024-02-24T12:00:51.368Z,99055.59
2024-02-24T12:03:18.660Z,99052.59
2024-02-24T12:05:45.982Z,99050.66
2024-02-24T12:08:17.185Z,99066.84
2024-02-24T12:10:44.631Z,99058.59
2024-02-24T12:13:14.967Z,99053.97
2024-02-24T12:15:47.429Z,99066.13
2024-02-24T12:18:15.206Z,99077.47
2024-02-24T12:20:49.785Z,99093.28
2024-02-24T12:23:20.661Z,99100.28
2024-02-24T12:25:47.788Z,99110.25
2024-02-24T12:28:15.232Z,99117.34
2024-02-24T12:30:43.873Z,99118.63
2024-02-24T12:33:18.206Z,99116.06
2024-02-24T12:35:49.087Z,99112.81
2024-02-24T12:38:19.107Z,99108.44
2024-02-24T12:40:46.515Z,99101.31
2024-02-24T12:43:13.959Z,99097.75
2024-02-24T12:45:41.102Z,99089.88
2024-02-24T12:48:09.209Z,99086.84
2024-02-24T12:50:36.852Z,99073.44
2024-02-24T12:53:09.163Z,99061.53
2024-02-24T12:55:36.726Z,99052.78
2024-02-24T12:58:04.480Z,99048.78
2024-02-24T13:00:31.806Z,99044.53
2024-02-24T13:03:01.033Z,99053.13
2024-02-24T13:05:28.635Z,99058.91
2024-02-24T13:07:56.180Z,99075.09
2024-02-24T13:10:23.689Z,99059.22
2024-02-24T13:12:50.804Z,99054.88
2024-02-24T13:15:17.995Z,99065.00
2024-02-24T13:17:45.386Z,99069.66
2024-02-24T13:20:12.686Z,99067.81
2024-02-24T13:22:42.626Z,99050.66
2024-02-24T13:25:13.115Z,99049.00
2024-02-24T13:27:40.280Z,99046.13
2024-02-24T13:30:08.178Z,99035.44
2024-02-24T13:32:35.736Z,99033.03
2024-02-24T13:35:02.920Z,99025.53
2024-02-24T13:37:29.897Z,99016.41
2024-02-24T13:39:57.033Z,99017.84
2024-02-24T13:42:24.226Z,99017.16
2024-02-24T13:44:51.503Z,99006.91
2024-02-24T13:47:19.571Z,99004.16
2024-02-24T13:49:46.891Z,99009.28
2024-02-24T13:52:13.983Z,99021.34
2024-02-24T13:54:41.257Z,99026.78
2024-02-24T13:57:08.697Z,99029.25
2024-02-24T13:59:35.850Z,99020.78
2024-02-24T14:02:03.171Z,99048.88
2024-02-24T14:04:30.319Z,99058.09
2024-02-24T14:06:57.826Z,99054.84
2024-02-24T14:09:25.026Z,99044.47
2024-02-24T14:11:54.294Z,99053.16
2024-02-24T14:14:21.621Z,99036.81
2024-02-24T14:16:48.847Z,99042.16
2024-02-24T14:19:20.932Z,99034.25
2024-02-24T14:21:49.684Z,99036.47
2024-02-24T14:24:16.883Z,99012.91
2024-02-24T14:26:43.948Z,99016.28
2024-02-24T14:29:11.064Z,99018.78
2024-02-24T14:31:38.283Z,99013.75
2024-02-24T14:34:05.678Z,99018.59
2024-02-24T14:36:32.917Z,99023.16
2024-02-24T14:39:01.094Z,99025.00
2024-02-24T14:41:28.883Z,99021.78
2024-02-24T14:43:56.072Z,99029.19
2024-02-24T14:46:23.180Z,99027.88
2024-02-24T14:48:50.561Z,99038.50
2024-02-24T14:51:19.560Z,99046.22
2024-02-24T14:53:48.486Z,99045.13
2024-02-24T14:56:15.508Z,99038.63
2024-02-24T14:58:42.514Z,99041.16
2024-02-24T15:01:11.778Z,99034.97
2024-02-24T15:03:43.181Z,99047.38
2024-02-24T15:06:12.538Z,99042.41
2024-02-24T15:08:39.819Z,99037.81
2024-02-24T15:11:07.069Z,99043.06
2024-02-24T15:13:36.629Z,99029.38
2024-02-24T15:16:05.001Z,99047.41
2024-02-24T15:18:32.234Z,99037.94
2024-02-24T15:20:59.768Z,99046.03
2024-02-24T15:23:26.956Z,99045.91
2024-02-24T15:25:54.077Z,99049.94
2024-02-24T15:28:21.445Z,99051.25
2024-02-24T15:30:48.664Z,99059.91
2024-02-24T15:33:15.930Z,99039.69
2024-02-24T15:35:43.740Z,99040.59
2024-02-24T15:38:11.065Z,99043.38
2024-02-24T15:40:41.011Z,99041.41
2024-02-24T15:43:09.713Z,99048.72
2024-02-24T15:45:36.951Z,99041.63
2024-02-24T15:48:04.210Z,99053.69
2024-02-24T15:50:31.464Z,99050.69
2024-02-24T15:52:58.585Z,99052.94
2024-02-24T15:55:25.755Z,99058.09
2024-02-24T15:57:53.067Z,99057.31
2024-02-24T16:00:21.019Z,99046.72
2024-02-24T16:02:48.101Z,99048.00
2024-02-24T16:05:19.483Z,99043.78
2024-02-24T16:07:46.675Z,99041.94
2024-02-24T16:10:13.716Z,99052.44
2024-02-24T16:12:40.723Z,99051.78
2024-02-24T16:15:08.134Z,99057.72
2024-02-24T16:17:35.815Z,99060.03
2024-02-24T16:20:03.350Z,99062.97
2024-02-24T16:22:30.433Z,99062.03
2024-02-24T16:24:57.587Z,99071.63
2024-02-24T16:27:24.696Z,99075.69
2024-02-24T16:29:51.923Z,99071.38
2024-02-24T16:32:19.113Z,99080.41
2024-02-24T16:34:46.640Z,99060.44
2024-02-24T16:37:13.809Z,99071.25
2024-02-24T16:39:40.986Z,99074.50
2024-02-24T16:42:08.155Z,99077.84
2024-02-24T16:44:35.262Z,99067.13
2024-02-24T16:47:02.340Z,99074.22
2024-02-24T16:49:31.968Z,99073.69
2024-02-24T16:51:59.157Z,99078.16
2024-02-24T16:54:26.408Z,99083.03
2024-02-24T16:56:53.384Z,99092.47
2024-02-24T16:59:20.535Z,99086.00
2024-02-24T17:01:47.635Z,99086.03
2024-02-24T17:04:14.763Z,99090.34
2024-02-24T17:06:42.109Z,99095.63
2024-02-24T17:09:10.402Z,99096.25
2024-02-24T17:11:38.029Z,99087.00
2024-02-24T17:14:05.177Z,99083.69
2024-02-24T17:16:32.219Z,99087.34
2024-02-24T17:18:59.514Z,99077.75
2024-02-24T17:21:28.665Z,99081.34
2024-02-24T17:23:57.155Z,99091.25
2024-02-24T17:26:24.347Z,99093.91
2024-02-24T17:28:52.232Z,99104.81
2024-02-24T17:31:19.215Z,99109.44
2024-02-24T17:33:47.601Z,99102.13
2024-02-24T17:36:15.900Z,99125.38
2024-02-24T17:38:43.376Z,99115.03
2024-02-24T17:41:10.641Z,99121.66
2024-02-24T17:43:37.944Z,99123.97
2024-02-24T17:46:05.390Z,99120.63
2024-02-24T17:48:34.116Z,99132.28
2024-02-24T17:51:01.405Z,99128.22
2024-02-24T17:53:28.668Z,99130.50
2024-02-24T17:55:55.947Z,99116.28
2024-02-24T17:58:32.090Z,99113.69
2024-02-24T18:01:04.141Z,99121.03
2024-02-24T18:03:31.265Z,99122.34
2024-02-24T18:05:58.519Z,99118.41
2024-02-24T18:08:25.812Z,99127.13
2024-02-24T18:10:52.803Z,99138.31
2024-02-24T18:13:19.921Z,99134.72
2024-02-24T18:15:49.943Z,99134.75
2024-02-24T18:18:18.340Z,99127.47
2024-02-24T18:20:45.643Z,99142.69
2024-02-24T18:23:12.836Z,99139.69
2024-02-24T18:25:40.117Z,99125.97
2024-02-24T18:28:07.748Z,99109.28
2024-02-24T18:30:34.935Z,99124.63
2024-02-24T18:33:02.416Z,99142.94
2024-02-24T18:35:29.631Z,99148.06
2024-02-24T18:37:56.596Z,99125.44
2024-02-24T18:40:23.740Z,99145.75
2024-02-24T18:42:50.738Z,99124.38
2024-02-24T18:45:17.845Z,99133.94
2024-02-24T18:47:45.064Z,99139.19
2024-02-24T18:50:12.297Z,99125.66
2024-02-24T18:52:39.481Z,99121.69
2024-02-24T18:55:07.341Z,99129.13
2024-02-24T18:57:34.520Z,99120.66
2024-02-24T19:00:01.854Z,99122.81
2024-02-24T19:02:29.170Z,99123.97
2024-02-24T19:04:56.657Z,99111.88
2024-02-24T19:07:23.896Z,99114.66
2024-02-24T19:09:50.982Z,99112.38
2024-02-24T19:12:18.262Z,99091.88
2024-02-24T19:14:51.960Z,99085.31
2024-02-24T19:17:22.519Z,99100.94
2024-02-24T19:19:50.540Z,99091.63
2024-02-24T19:22:17.878Z,99084.63
2024-02-24T19:24:44.980Z,99088.94
2024-02-24T19:27:12.145Z,99073.16
2024-02-24T19:29:45.170Z,99078.41
2024-02-24T19:32:13.020Z,99082.69
2024-02-24T19:34:40.293Z,99041.91
2024-02-24T19:37:10.847Z,99056.78
2024-02-24T19:39:38.732Z,99045.59
2024-02-24T19:42:06.216Z,99059.75
2024-02-24T19:44:35.442Z,99060.50
2024-02-24T19:47:05.977Z,99081.09
2024-02-24T19:49:33.286Z,99051.00
2024-02-24T19:52:00.488Z,99075.66
2024-02-24T19:54:27.680Z,99060.59
2024-02-24T19:56:55.016Z,99059.16
2024-02-24T19:59:22.451Z,99067.34
2024-02-24T20:01:51.413Z,99072.13
2024-02-24T20:04:19.136Z,99067.25
2024-02-24T20:06:47.338Z,99061.66
2024-02-24T20:09:14.798Z,99046.25
2024-02-24T20:11:41.985Z,99058.56
2024-02-24T20:14:09.283Z,99021.34
2024-02-24T20:16:36.396Z,99058.69
2024-02-24T20:19:03.673Z,99060.94
2024-02-24T20:21:31.032Z,99061.47
2024-02-24T20:23:58.507Z,99052.66
2024-02-24T20:26:25.925Z,99051.72
2024-02-24T20:28:54.992Z,99043.66
2024-02-24T20:31:22.664Z,99035.00
2024-02-24T20:33:53.962Z,99041.69
2024-02-24T20:36:28.054Z,99045.94
2024-02-24T20:38:55.589Z,99049.75
2024-02-24T20:41:25.497Z,99046.97
2024-02-24T20:43:54.867Z,99047.47
2024-02-24T20:46:22.247Z,99047.97
2024-02-24T20:48:49.559Z,99034.53
2024-02-24T20:51:16.852Z,99037.78
2024-02-24T20:53:44.052Z,99026.03
2024-02-24T20:56:11.109Z,99023.44
2024-02-24T20:58:39.892Z,99021.84
2024-02-24T21:01:07.592Z,99020.06
2024-02-24T21:03:34.701Z,99011.94
2024-02-24T21:06:02.211Z,99020.03
2024-02-24T21:08:29.570Z,99018.31
2024-02-24T21:10:56.700Z,99013.59
2024-02-24T21:13:23.762Z,99017.28
2024-02-24T21:15:50.924Z,99019.56
2024-02-24T21:18:18.054Z,99017.91
2024-02-24T21:20:45.074Z,99011.91
2024-02-24T21:23:12.157Z,99007.28
2024-02-24T21:25:39.255Z,99014.59
2024-02-24T21:28:07.932Z,99005.16
2024-02-24T21:30:35.387Z,99013.75
2024-02-24T21:33:02.660Z,99015.25
2024-02-24T21:35:32.918Z,99011.97
2024-02-24T21:38:00.126Z,99003.22
2024-02-24T21:40:27.569Z,99012.88
2024-02-24T21:42:54.728Z,99007.91
2024-02-24T21:45:21.980Z,99014.88
2024-02-24T21:47:49.814Z,99010.94
2024-02-24T21:50:17.041Z,99009.56
2024-02-24T21:52:44.190Z,98994.47
2024-02-24T21:55:11.290Z,98994.69
2024-02-24T21:57:39.580Z,98995.03
2024-02-24T22:00:07.586Z,98992.03
2024-02-24T22:02:34.827Z,98999.34
2024-02-24T22:05:02.031Z,98997.94
2024-02-24T22:07:29.946Z,98995.69
2024-02-24T22:09:57.059Z,98998.56
2024-02-24T22:12:24.103Z,98977.91
2024-02-24T22:14:51.171Z,98987.97
2024-02-24T22:17:19.792Z,98986.84
2024-02-24T22:19:46.971Z,98974.28
2024-02-24T22:22:14.253Z,98990.25
2024-02-24T22:24:41.348Z,98989.59
2024-02-24T22:27:09.411Z,98992.09
2024-02-24T22:29:36.708Z,98990.78
2024-02-24T22:32:04.321Z,99011.03
2024-02-24T22:34:31.553Z,99000.97
2024-02-24T22:36:58.777Z,99012.53
2024-02-24T22:39:25.968Z,99011.91
2024-02-24T22:41:53.086Z,99012.97
2024-02-24T22:44:20.533Z,99013.28
2024-02-24T22:46:47.726Z,99023.16
2024-02-24T22:49:15.235Z,99033.13
2024-02-24T22:51:42.547Z,99025.03
2024-02-24T22:54:10.041Z,99023.22
2024-02-24T22:56:37.221Z,99023.53
2024-02-24T22:59:04.548Z,99002.06
2024-02-24T23:01:32.140Z,99022.06
2024-02-24T23:04:00.210Z,99016.28
2024-02-24T23:06:27.492Z,99009.97
2024-02-24T23:08:54.694Z,98998.09
2024-02-24T23:11:29.857Z,98971.19
2024-02-24T23:14:04.264Z,98974.47
2024-02-24T23:16:31.290Z,98949.03
2024-02-24T23:18:59.866Z,98944.94
2024-02-24T23:21:31.620Z,98917.50
2024-02-24T23:23:59.144Z,98918.13
2024-02-24T23:26:26.401Z,98931.72
2024-02-24T23:28:53.776Z,98925.06
2024-02-24T23:31:20.891Z,98910.69
2024-02-24T23:33:48.259Z,98901.16
2024-02-24T23:36:15.523Z,98894.03
2024-02-24T23:38:44.322Z,98896.03
2024-02-24T23:41:11.586Z,98906.94
2024-02-24T23:43:38.520Z,98884.16
2024-02-24T23:46:05.741Z,98881.16
2024-02-24T23:48:43.297Z,98894.03
2024-02-24T23:51:11.148Z,98883.16
2024-02-24T23:53:41.416Z,98863.69
2024-02-24T23:56:10.464Z,98869.78
2024-02-24T23:58:37.969Z,98870.28
